Time;durP1;ratioP1;P1;durP2;ratioP2;P2;SDS_P1;SDS_P2;PMS_P1;PMS_P2;Temp;Humidity;BMP_temperature;BMP_pressure;BME280_temperature;BME280_humidity;BME280_pressure;Samples;Min_cycle;Max_cycle;Signal;HPM_P1;HPM_P2
2023/02/02 00:02:06;;;;;;;;;;;;;;;15.73;70.73;100779.81;7382740;19;1984;-42
2023/02/02 00:04:36;;;;;;;;;;;;;;;15.75;70.40;100766.38;7399375;19;1692;-43
2023/02/02 00:07:06;;;;;;;;;;;;;;;15.77;70.61;100802.59;7400960;19;1867;-42
2023/02/02 00:09:34;;;;;;;;;;;;;;;15.68;70.64;100779.28;7399473;19;1717;-42
2023/02/02 00:12:05;;;;;;;;;;;;;;;15.65;70.44;100777.66;7398304;19;2282;-42
2023/02/02 00:14:34;;;;;;;;;;;;;;;15.64;70.29;100768.00;7398179;19;1918;-42
2023/02/02 00:17:03;;;;;;;;;;;;;;;15.65;70.45;100779.50;7398194;19;1948;-42
2023/02/02 00:19:32;;;;;;;;;;;;;;;15.62;70.43;100764.59;7400033;19;1757;-42
2023/02/02 00:22:00;;;;;;;;;;;;;;;15.60;70.47;100777.19;7399857;19;1817;-42
2023/02/02 00:24:29;;;;;;;;;;;;;;;15.60;70.16;100771.00;7398348;19;2029;-42
2023/02/02 00:26:58;;;;;;;;;;;;;;;15.60;70.26;100781.66;7397964;19;2041;-42
2023/02/02 00:29:30;;;;;;;;;;;;;;;15.60;70.33;100761.19;7399271;19;994;-42
2023/02/02 00:31:58;;;;;;;;;;;;;;;15.59;70.06;100774.63;7400181;19;1042;-42
2023/02/02 00:34:26;;;;;;;;;;;;;;;15.59;70.29;100771.94;7402438;19;1878;-42
2023/02/02 00:36:55;;;;;;;;;;;;;;;15.59;70.21;100769.28;7406200;19;2010;-42
2023/02/02 00:39:24;;;;;;;;;;;;;;;15.61;70.29;100768.19;7404049;19;1994;-42
2023/02/02 00:41:53;;;;;;;;;;;;;;;15.62;70.44;100779.75;7405292;19;1739;-42
2023/02/02 00:47:05;;;;;;;;;;;;;;;15.57;70.18;100769.41;7407610;19;1858;-42
2023/02/02 00:49:33;;;;;;;;;;;;;;;15.60;70.21;100779.00;7406197;19;1927;-43
2023/02/02 00:52:01;;;;;;;;;;;;;;;15.57;70.16;100779.22;7406625;19;1998;-42
2023/02/02 00:54:30;;;;;;;;;;;;;;;15.58;70.02;100765.78;7403458;19;1919;-42
2023/02/02 00:56:58;;;;;;;;;;;;;;;15.53;70.12;100765.25;7402561;19;2301;-42
2023/02/02 00:59:27;;;;;;;;;;;;;;;15.54;70.23;100774.97;7404323;19;1729;-42
2023/02/02 01:01:55;;;;;;;;;;;;;;;15.52;70.14;100775.06;7405366;19;1736;-43
2023/02/02 01:04:26;;;;;;;;;;;;;;;15.50;70.59;100766.34;7405822;19;1946;-42
2023/02/02 01:06:54;;;;;;;;;;;;;;;15.47;70.29;100769.22;7406446;19;1024;-42
2023/02/02 01:09:22;;;;;;;;;;;;;;;15.48;70.51;100770.94;7403404;19;1838;-42
2023/02/02 01:11:51;;;;;;;;;;;;;;;15.47;70.44;100761.22;7403799;19;1548;-42
2023/02/02 01:14:19;;;;;;;;;;;;;;;15.48;70.21;100760.28;7405139;19;1858;-42
2023/02/02 01:16:47;;;;;;;;;;;;;;;15.45;70.36;100755.16;7405616;19;1873;-42
2023/02/02 01:19:16;;;;;;;;;;;;;;;15.47;70.01;100773.69;7405740;19;1721;-42
2023/02/02 01:21:47;;;;;;;;;;;;;;;15.44;70.03;100766.78;7405063;19;2019;-42
2023/02/02 01:24:15;;;;;;;;;;;;;;;15.42;70.29;100762.50;7403365;19;2119;-42
2023/02/02 01:26:44;;;;;;;;;;;;;;;15.43;70.07;100764.22;7403377;19;1921;-42
2023/02/02 01:29:12;;;;;;;;;;;;;;;15.39;70.47;100758.28;7405795;19;1822;-43
2023/02/02 01:31:41;;;;;;;;;;;;;;;15.37;70.11;100754.88;7405325;19;2055;-42
2023/02/02 01:34:09;;;;;;;;;;;;;;;15.42;70.21;100763.38;7403935;19;1997;-42
2023/02/02 01:36:37;;;;;;;;;;;;;;;15.40;70.22;100741.34;7404984;19;1889;-42
2023/02/02 01:39:08;;;;;;;;;;;;;;;15.42;70.53;100746.53;7404246;19;1759;-42
2023/02/02 01:41:37;;;;;;;;;;;;;;;15.44;70.00;100742.81;7404001;19;1639;-43
2023/02/02 01:44:06;;;;;;;;;;;;;;;15.43;70.03;100748.25;7403676;19;1889;-42
2023/02/02 01:46:35;;;;;;;;;;;;;;;15.42;70.05;100755.41;7403791;19;1918;-42
2023/02/02 01:49:06;;;;;;;;;;;;;;;15.40;70.06;100743.13;7404720;19;1743;-42
2023/02/02 01:51:38;;;;;;;;;;;;;;;15.39;70.13;100747.63;7405583;19;1184;-42
2023/02/02 01:54:11;;;;;;;;;;;;;;;15.39;70.17;100752.09;7401203;19;2076;-42
2023/02/02 01:56:43;;;;;;;;;;;;;;;15.41;69.96;100751.00;7402030;19;1946;-42
2023/02/02 01:59:12;;;;;;;;;;;;;;;15.40;70.09;100762.66;7403896;19;1993;-43
2023/02/02 02:01:40;;;;;;;;;;;;;;;15.37;70.14;100760.19;7403580;19;1733;-43
2023/02/02 02:04:08;;;;;;;;;;;;;;;15.37;69.85;100756.69;7402732;19;1869;-42
2023/02/02 02:06:37;;;;;;;;;;;;;;;15.35;70.18;100751.47;7404240;19;1807;-42
2023/02/02 02:09:06;;;;;;;;;;;;;;;15.32;69.86;100763.22;7401199;19;1977;-42
2023/02/02 02:11:37;;;;;;;;;;;;;;;15.32;70.26;100767.69;7402724;19;1951;-42
2023/02/02 02:16:54;;;;;;;;;;;;;;;15.30;69.88;100769.63;7404827;19;1508;-42
2023/02/02 02:26:32;;;;;;;;;;;;;;;15.27;70.22;100754.69;7403222;19;1866;-42
2023/02/02 02:28:23;;;;;;;;;;;;;;;16.38;68.28;100756.28;7401387;19;2173;-42
2023/02/02 02:31:06;;;;;;;;;;;;;;;17.24;65.13;100757.50;7399886;19;2419;-42
2023/02/02 02:33:42;;;;;;;;;;;;;;;17.74;64.05;100754.34;7401410;19;1552;-42
2023/02/02 02:36:16;;;;;;;;;;;;;;;17.87;63.87;100745.19;7401107;19;1894;-42
2023/02/02 02:38:50;;;;;;;;;;;;;;;18.02;63.82;100751.06;7402425;19;2078;-42
2023/02/02 02:41:21;;;;;;;;;;;;;;;18.03;63.45;100738.56;7401216;19;1903;-43
2023/02/02 02:43:52;;;;;;;;;;;;;;;18.12;63.15;100732.41;7402765;19;2188;-42
2023/02/02 02:46:21;;;;;;;;;;;;;;;18.06;63.41;100735.59;7402365;19;1634;-42
2023/02/02 02:48:52;;;;;;;;;;;;;;;18.18;62.63;100739.91;7403542;19;1033;-42
2023/02/02 02:51:36;;;;;;;;;;;;;;;18.91;60.62;100736.38;7402612;19;2329;-42
2023/02/02 02:54:04;;;;;;;;;;;;;;;18.94;61.04;100747.69;7401633;19;1920;-43
2023/02/02 02:56:35;;;;;;;;;;;;;;;19.17;60.79;100726.03;7397688;19;1965;-43
2023/02/02 02:59:07;;;;;;;;;;;;;;;19.28;60.56;100750.03;7401978;19;2102;-43
2023/02/02 03:01:48;;;;;;;;;;;;;;;19.34;60.50;100733.41;7399429;19;2136;-43
2023/02/02 03:04:23;;;;;;;;;;;;;;;19.32;60.44;100729.13;7400751;19;1719;-43
2023/02/02 03:06:54;;;;;;;;;;;;;;;19.35;60.18;100729.72;7402298;19;1551;-42
2023/02/02 03:09:24;;;;;;;;;;;;;;;19.44;60.14;100723.53;7400909;19;1656;-42
2023/02/02 03:11:53;;;;;;;;;;;;;;;19.52;59.63;100741.63;7400193;19;2008;-42
2023/02/02 03:14:21;;;;;;;;;;;;;;;19.55;59.95;100743.16;7400511;19;2004;-42
2023/02/02 03:16:52;;;;;;;;;;;;;;;19.56;59.55;100747.56;7401883;19;1771;-42
2023/02/02 03:19:23;;;;;;;;;;;;;;;19.46;59.98;100739.50;7402004;19;1003;-42
2023/02/02 03:21:51;;;;;;;;;;;;;;;19.52;59.72;100772.94;7400414;19;2217;-42
2023/02/02 03:24:19;;;;;;;;;;;;;;;19.57;59.60;100762.63;7400993;19;1695;-42
2023/02/02 03:26:48;;;;;;;;;;;;;;;19.63;59.56;100768.28;7399357;19;1916;-42
2023/02/02 03:29:16;;;;;;;;;;;;;;;19.68;59.09;100762.53;7402063;19;1838;-42
2023/02/02 03:31:44;;;;;;;;;;;;;;;19.67;59.18;100763.50;7401096;19;2074;-42
2023/02/02 03:34:13;;;;;;;;;;;;;;;19.52;59.51;100762.19;7400515;19;2035;-42
2023/02/02 03:36:43;;;;;;;;;;;;;;;19.50;59.73;100780.25;7398029;19;1867;-42
2023/02/02 03:39:12;;;;;;;;;;;;;;;19.48;59.73;100775.06;7401359;19;1711;-42
2023/02/02 03:41:40;;;;;;;;;;;;;;;19.45;59.98;100760.06;7399892;19;1720;-42
2023/02/02 03:44:08;;;;;;;;;;;;;;;19.40;59.59;100765.03;7400685;19;1829;-42
2023/02/02 03:46:37;;;;;;;;;;;;;;;19.28;60.55;100758.09;7398711;19;1814;-42
2023/02/02 03:49:05;;;;;;;;;;;;;;;19.36;60.39;100763.59;7401158;19;1825;-42
2023/02/02 03:51:33;;;;;;;;;;;;;;;19.35;60.35;100783.34;7401478;19;1121;-42
2023/02/02 03:54:04;;;;;;;;;;;;;;;19.42;59.98;100773.78;7399676;19;1662;-42
2023/02/02 03:56:32;;;;;;;;;;;;;;;19.50;59.77;100791.00;7397924;19;2014;-42
2023/02/02 03:59:01;;;;;;;;;;;;;;;19.36;59.84;100768.97;7399677;19;1750;-42
2023/02/02 04:01:30;;;;;;;;;;;;;;;18.95;61.50;100786.88;7400108;19;1693;-42
2023/02/02 04:03:59;;;;;;;;;;;;;;;18.24;62.86;100776.91;7400534;19;1940;-42
2023/02/02 04:06:27;;;;;;;;;;;;;;;17.92;64.05;100784.09;7401753;19;1609;-42
2023/02/02 04:08:56;;;;;;;;;;;;;;;18.29;63.34;100758.59;7400026;19;1654;-42
2023/02/02 04:11:26;;;;;;;;;;;;;;;18.73;62.11;100765.59;7407001;19;1713;-42
2023/02/02 04:13:55;;;;;;;;;;;;;;;18.94;61.41;100774.50;7407554;19;1902;-42
2023/02/02 04:16:23;;;;;;;;;;;;;;;18.94;61.32;100779.84;7405447;19;1844;-42
2023/02/02 04:18:51;;;;;;;;;;;;;;;18.88;61.52;100780.38;7407386;19;1889;-42
2023/02/02 04:21:20;;;;;;;;;;;;;;;18.76;61.82;100779.59;7407902;19;1382;-42
2023/02/02 04:23:48;;;;;;;;;;;;;;;18.71;61.70;100778.28;7404272;19;1877;-42
2023/02/02 04:26:16;;;;;;;;;;;;;;;18.72;61.82;100793.38;7407189;19;1994;-42
2023/02/02 04:28:47;;;;;;;;;;;;;;;18.63;61.84;100777.09;7404825;19;1587;-42
2023/02/02 04:31:15;;;;;;;;;;;;;;;18.64;62.41;100776.16;7405736;19;2075;-42
2023/02/02 04:33:44;;;;;;;;;;;;;;;18.63;62.16;100769.06;6378002;19;10000732;-42
2023/02/02 04:36:12;;;;;;;;;;;;;;;18.60;62.41;100787.22;7396912;19;1855;-42
2023/02/02 04:38:40;;;;;;;;;;;;;;;18.59;62.42;100791.75;7399465;19;1715;-42
2023/02/02 04:41:09;;;;;;;;;;;;;;;18.63;62.30;100777.09;7405905;19;2036;-42
2023/02/02 04:43:38;;;;;;;;;;;;;;;18.59;62.60;100801.63;6882777;19;10000332;-42
2023/02/02 04:46:09;;;;;;;;;;;;;;;18.58;62.29;100816.84;7398730;19;1510;-42
2023/02/02 04:48:37;;;;;;;;;;;;;;;18.59;62.45;100798.94;7401211;19;2045;-42
2023/02/02 04:51:07;;;;;;;;;;;;;;;18.62;61.76;100786.16;7400030;19;2289;-42
2023/02/02 04:53:35;;;;;;;;;;;;;;;18.54;62.14;100785.94;7398135;19;1893;-42
2023/02/02 04:56:07;;;;;;;;;;;;;;;18.50;62.30;100792.53;7398268;19;1883;-42
2023/02/02 04:58:35;;;;;;;;;;;;;;;18.58;62.02;100799.91;7400828;19;1556;-42
2023/02/02 05:01:09;;;;;;;;;;;;;;;18.58;62.26;100781.16;7400897;19;1583;-42
2023/02/02 05:03:40;;;;;;;;;;;;;;;18.58;61.97;100789.19;7400926;19;1645;-42
2023/02/02 05:06:08;;;;;;;;;;;;;;;18.61;61.61;100799.66;7399011;19;2235;-42
2023/02/02 05:08:37;;;;;;;;;;;;;;;18.57;61.71;100803.59;7396593;19;1716;-42
2023/02/02 05:11:08;;;;;;;;;;;;;;;18.64;61.52;100794.03;7404225;19;1923;-42
2023/02/02 05:13:36;;;;;;;;;;;;;;;18.62;61.61;100780.78;7403921;19;1680;-43
2023/02/02 05:16:05;;;;;;;;;;;;;;;18.65;61.60;100783.19;7403870;19;1869;-42
2023/02/02 05:18:33;;;;;;;;;;;;;;;18.64;61.67;100807.41;7405438;19;1912;-42
2023/02/02 05:21:05;;;;;;;;;;;;;;;18.65;61.58;100795.75;7403481;19;2148;-42
2023/02/02 05:23:33;;;;;;;;;;;;;;;18.61;61.78;100797.81;7404220;19;1793;-42
2023/02/02 05:26:01;;;;;;;;;;;;;;;18.60;62.41;100796.16;7404656;19;2183;-42
2023/02/02 05:28:30;;;;;;;;;;;;;;;18.69;61.98;100787.28;7399610;19;2245;-45
2023/02/02 05:30:58;;;;;;;;;;;;;;;18.78;62.03;100788.34;7404527;19;1875;-43
2023/02/02 05:33:27;;;;;;;;;;;;;;;18.75;62.09;100791.28;7401423;19;1796;-42
2023/02/02 05:35:55;;;;;;;;;;;;;;;18.72;62.19;100799.59;7399160;19;1847;-42
2023/02/02 05:38:26;;;;;;;;;;;;;;;18.72;62.66;100815.66;7402471;19;1620;-42
2023/02/02 05:40:54;;;;;;;;;;;;;;;18.61;62.32;100813.91;7401825;19;1585;-42
2023/02/02 05:43:25;;;;;;;;;;;;;;;18.68;61.84;100815.06;7401908;19;2474;-42
2023/02/02 05:45:54;;;;;;;;;;;;;;;18.63;62.29;100801.22;7402118;19;2256;-42
2023/02/02 05:48:22;;;;;;;;;;;;;;;18.62;62.09;100820.97;7403238;19;1881;-42
2023/02/02 05:50:56;;;;;;;;;;;;;;;18.62;61.99;100823.66;7403332;19;1998;-42
2023/02/02 05:53:27;;;;;;;;;;;;;;;18.58;61.95;100826.69;7404407;19;1686;-42
2023/02/02 05:55:56;;;;;;;;;;;;;;;18.61;61.97;100821.09;7403017;19;1863;-42
2023/02/02 05:58:24;;;;;;;;;;;;;;;18.63;61.42;100830.69;7400195;19;1978;-42
2023/02/02 06:00:53;;;;;;;;;;;;;;;18.61;61.14;100827.28;7404279;19;2065;-42
2023/02/02 06:03:21;;;;;;;;;;;;;;;18.62;61.17;100812.94;7393062;19;1879;-42
2023/02/02 06:05:49;;;;;;;;;;;;;;;18.61;60.80;100819.25;7400705;19;1709;-42
2023/02/02 06:08:18;;;;;;;;;;;;;;;18.63;61.22;100833.34;7401970;19;1502;-43
2023/02/02 06:10:49;;;;;;;;;;;;;;;18.65;61.04;100841.28;7403739;19;1236;-42
2023/02/02 06:13:18;;;;;;;;;;;;;;;18.71;60.66;100837.22;7403607;19;2871;-42
2023/02/02 06:15:46;;;;;;;;;;;;;;;18.63;60.81;100830.69;7401821;19;1838;-42
2023/02/02 06:21:10;;;;;;;;;;;;;;;18.61;61.21;100829.97;7379275;19;1610;-42
2023/02/02 06:23:44;;;;;;;;;;;;;;;18.65;61.81;100814.47;7399678;19;1725;-42
2023/02/02 06:26:15;;;;;;;;;;;;;;;18.67;62.28;100832.13;7400752;19;1849;-42
2023/02/02 06:28:43;;;;;;;;;;;;;;;18.60;63.36;100832.75;7402089;19;1618;-42
2023/02/02 06:31:14;;;;;;;;;;;;;;;18.68;63.70;100839.19;7398255;19;1993;-42
2023/02/02 06:33:42;;;;;;;;;;;;;;;18.69;64.59;100819.44;7401230;19;2000;-43
2023/02/02 06:36:10;;;;;;;;;;;;;;;18.65;63.31;100836.75;7398816;19;1844;-43
2023/02/02 06:38:39;;;;;;;;;;;;;;;18.72;63.03;100853.16;7401711;19;1724;-43
2023/02/02 06:41:07;;;;;;;;;;;;;;;18.66;63.58;100829.56;7401131;19;1618;-43
2023/02/02 06:43:38;;;;;;;;;;;;;;;18.60;63.96;100830.97;7402424;19;976;-43
2023/02/02 06:46:07;;;;;;;;;;;;;;;18.58;63.87;100827.56;7401550;19;1061;-43
2023/02/02 06:48:35;;;;;;;;;;;;;;;18.61;63.53;100832.63;7401315;19;1894;-42
2023/02/02 06:51:04;;;;;;;;;;;;;;;18.71;63.82;100827.34;7400258;19;2134;-42
2023/02/02 06:53:32;;;;;;;;;;;;;;;18.71;64.34;100810.44;7401294;19;1637;-43
2023/02/02 06:56:01;;;;;;;;;;;;;;;18.76;63.76;100824.25;7400007;19;2004;-43
2023/02/02 06:58:30;;;;;;;;;;;;;;;18.67;63.11;100812.53;7400742;19;1684;-43
2023/02/02 07:01:06;;;;;;;;;;;;;;;18.66;63.34;100803.66;7400581;19;2079;-43
2023/02/02 07:03:34;;;;;;;;;;;;;;;18.67;63.10;100818.72;7400899;19;2094;-42
2023/02/02 07:06:12;;;;;;;;;;;;;;;18.73;62.91;100816.50;7400012;19;1674;-42
2023/02/02 07:08:40;;;;;;;;;;;;;;;18.74;62.93;100820.88;7396473;19;1810;-43
2023/02/02 07:11:08;;;;;;;;;;;;;;;18.63;63.56;100829.84;7400824;19;1839;-43
2023/02/02 07:13:36;;;;;;;;;;;;;;;18.58;63.97;100838.28;7398973;19;1761;-43
2023/02/02 07:16:08;;;;;;;;;;;;;;;18.63;63.87;100862.81;7400592;19;1923;-43
2023/02/02 07:18:36;;;;;;;;;;;;;;;18.71;63.30;100838.06;7399523;19;1688;-43
2023/02/02 07:21:04;;;;;;;;;;;;;;;18.70;63.47;100844.38;7399929;19;1947;-42
2023/02/02 07:23:34;;;;;;;;;;;;;;;18.72;63.30;100842.44;7399991;19;1770;-43
2023/02/02 07:26:03;;;;;;;;;;;;;;;18.66;65.03;100851.00;7400156;19;2166;-43
2023/02/02 07:28:31;;;;;;;;;;;;;;;18.90;65.07;100848.09;7400506;19;1946;-43
2023/02/02 07:30:59;;;;;;;;;;;;;;;19.04;65.04;100850.41;7398356;19;2033;-43
2023/02/02 07:33:30;;;;;;;;;;;;;;;19.18;64.83;100861.72;7398999;19;1679;-43
2023/02/02 07:35:59;;;;;;;;;;;;;;;19.20;64.77;100887.44;7398743;19;1876;-43
2023/02/02 07:38:27;;;;;;;;;;;;;;;19.16;64.81;100869.94;7397941;19;1689;-44
2023/02/02 07:40:55;;;;;;;;;;;;;;;19.13;65.28;100882.75;7397227;19;2133;-45
2023/02/02 07:43:24;;;;;;;;;;;;;;;19.19;65.63;100882.22;7400979;19;1906;-46
2023/02/02 07:45:53;;;;;;;;;;;;;;;19.33;65.30;100884.53;7402629;19;1682;-46
2023/02/02 07:48:21;;;;;;;;;;;;;;;19.30;64.79;100903.59;7405147;19;1953;-46
2023/02/02 07:50:52;;;;;;;;;;;;;;;19.33;64.90;100897.94;7405726;19;1896;-46
2023/02/02 07:53:22;;;;;;;;;;;;;;;19.17;65.53;100894.91;7403709;19;1770;-46
2023/02/02 07:55:50;;;;;;;;;;;;;;;19.24;65.87;100883.50;7406136;19;1795;-47
2023/02/02 07:58:18;;;;;;;;;;;;;;;19.26;65.83;100888.75;7403361;19;1852;-43
2023/02/02 08:00:47;;;;;;;;;;;;;;;19.31;66.19;100891.03;7365765;19;1873;-42
2023/02/02 08:03:15;;;;;;;;;;;;;;;18.74;67.75;100879.81;7403747;19;2037;-43
2023/02/02 08:05:43;;;;;;;;;;;;;;;18.29;68.88;100895.13;7407627;19;1766;-43
2023/02/02 08:08:14;;;;;;;;;;;;;;;17.98;69.68;100883.41;7403973;19;1061;-43
2023/02/02 08:10:48;;;;;;;;;;;;;;;17.81;70.00;100882.09;7408876;19;1023;-43
2023/02/02 08:13:17;;;;;;;;;;;;;;;17.69;70.61;100888.44;7407789;19;1957;-43
2023/02/02 08:15:45;;;;;;;;;;;;;;;17.61;70.44;100880.19;7407372;19;2133;-43
2023/02/02 08:18:13;;;;;;;;;;;;;;;17.58;71.13;100851.03;7404637;19;2142;-43
2023/02/02 08:20:41;;;;;;;;;;;;;;;17.53;70.71;100851.41;7407423;19;1942;-43
2023/02/02 08:23:14;;;;;;;;;;;;;;;17.49;70.51;100866.84;7407970;19;1058;-43
2023/02/02 08:25:45;;;;;;;;;;;;;;;17.46;70.84;100864.41;7408083;19;1056;-43
2023/02/02 08:28:13;;;;;;;;;;;;;;;17.45;70.96;100832.47;7407274;19;1737;-43
2023/02/02 08:30:42;;;;;;;;;;;;;;;17.46;71.44;100834.97;7405028;19;1904;-43
2023/02/02 08:33:10;;;;;;;;;;;;;;;17.44;71.81;100839.59;7405850;19;1989;-43
2023/02/02 08:35:41;;;;;;;;;;;;;;;17.37;70.95;100835.75;7407133;19;1923;-43
2023/02/02 08:38:10;;;;;;;;;;;;;;;17.31;71.38;100822.88;7405339;19;1846;-43
2023/02/02 08:40:38;;;;;;;;;;;;;;;17.27;71.54;100816.06;7407461;19;1039;-43
2023/02/02 08:43:09;;;;;;;;;;;;;;;17.21;71.29;100820.09;7405618;19;2301;-43
2023/02/02 08:45:37;;;;;;;;;;;;;;;17.18;72.17;100820.31;7406524;19;2007;-43
2023/02/02 08:48:06;;;;;;;;;;;;;;;17.16;71.57;100816.06;7406985;19;1968;-44
2023/02/02 08:50:35;;;;;;;;;;;;;;;17.08;72.34;100817.53;7405842;19;1789;-43
2023/02/02 08:53:03;;;;;;;;;;;;;;;17.07;71.93;100807.81;7407002;19;1079;-44
2023/02/02 08:55:31;;;;;;;;;;;;;;;17.09;71.92;100837.09;7404361;19;2108;-44
2023/02/02 08:58:00;;;;;;;;;;;;;;;16.66;71.56;100763.81;7403516;19;2020;-44
2023/02/02 09:00:30;;;;;;;;;;;;;;;17.01;71.77;100826.13;7405642;19;2072;-44
2023/02/02 09:02:59;;;;;;;;;;;;;;;16.99;72.18;100842.31;7406486;19;1907;-44
2023/02/02 09:05:27;;;;;;;;;;;;;;;16.99;72.22;100865.47;7406340;19;1069;-43
2023/02/02 09:07:55;;;;;;;;;;;;;;;17.00;71.92;100862.69;7406637;19;1060;-44
2023/02/02 09:10:24;;;;;;;;;;;;;;;16.90;71.97;100849.22;7405558;19;2018;-44
2023/02/02 09:12:52;;;;;;;;;;;;;;;16.87;72.70;100840.56;7405257;19;2025;-44
2023/02/02 09:15:21;;;;;;;;;;;;;;;16.85;72.72;100848.72;7405738;19;1886;-44
2023/02/02 09:17:52;;;;;;;;;;;;;;;16.82;72.67;100845.44;7404217;19;1842;-44
2023/02/02 09:20:20;;;;;;;;;;;;;;;16.79;72.40;100829.63;7404236;19;2184;-44
2023/02/02 09:22:49;;;;;;;;;;;;;;;16.77;72.27;100827.09;7406020;19;999;-43
2023/02/02 09:28:13;;;;;;;;;;;;;;;16.72;72.17;100834.59;7405444;19;771;-44
2023/02/02 09:30:41;;;;;;;;;;;;;;;16.72;72.22;100834.59;7402590;19;2074;-44
2023/02/02 09:33:12;;;;;;;;;;;;;;;16.67;72.02;100821.59;7404222;19;1668;-44
2023/02/02 09:35:41;;;;;;;;;;;;;;;16.63;72.06;100816.59;7403784;19;1926;-44
2023/02/02 09:38:09;;;;;;;;;;;;;;;16.61;72.16;100814.06;7402007;19;1849;-44
2023/02/02 09:40:37;;;;;;;;;;;;;;;16.58;72.47;100806.28;7405277;19;2038;-44
2023/02/02 09:43:12;;;;;;;;;;;;;;;16.53;72.68;100803.09;7403412;19;1908;-44
2023/02/02 09:45:44;;;;;;;;;;;;;;;16.52;72.45;100784.56;7404578;19;2058;-44
2023/02/02 09:48:22;;;;;;;;;;;;;;;16.57;72.24;100787.72;7405339;19;1880;-44
2023/02/02 09:50:53;;;;;;;;;;;;;;;16.56;72.09;100784.19;7404306;19;1754;-44
2023/02/02 09:53:29;;;;;;;;;;;;;;;16.57;72.67;100772.53;7404475;19;1886;-44
2023/02/02 09:55:59;;;;;;;;;;;;;;;16.63;72.56;100776.56;7403150;19;1972;-44
2023/02/02 09:58:29;;;;;;;;;;;;;;;16.62;72.59;100783.72;7402711;19;1854;-44
2023/02/02 10:01:00;;;;;;;;;;;;;;;16.61;72.85;100763.34;7405127;19;2071;-44
2023/02/02 10:03:34;;;;;;;;;;;;;;;16.58;72.81;100762.72;7404038;19;1872;-44
2023/02/02 10:06:06;;;;;;;;;;;;;;;16.54;72.82;100762.13;7401359;19;1947;-44
2023/02/02 10:08:36;;;;;;;;;;;;;;;16.50;72.95;100750.81;7400069;19;2075;-44
2023/02/02 10:11:11;;;;;;;;;;;;;;;16.52;73.01;100764.06;7402914;19;1729;-44
2023/02/02 10:13:42;;;;;;;;;;;;;;;16.44;72.83;100759.31;7401993;19;1896;-44
2023/02/02 10:16:16;;;;;;;;;;;;;;;16.38;72.19;100758.94;7396283;19;2177;-45
2023/02/02 10:18:50;;;;;;;;;;;;;;;16.46;72.16;100730.69;7400574;19;1907;-45
2023/02/02 10:21:23;;;;;;;;;;;;;;;16.50;71.65;100716.13;7403847;19;1468;-45
2023/02/02 10:23:53;;;;;;;;;;;;;;;16.55;71.92;100726.41;7401483;19;1499;-45
2023/02/02 10:26:23;;;;;;;;;;;;;;;16.53;71.62;100723.03;7401170;19;1805;-45
2023/02/02 10:29:03;;;;;;;;;;;;;;;16.50;71.65;100728.63;7400693;19;1743;-45
2023/02/02 10:31:46;;;;;;;;;;;;;;;16.61;71.55;100728.63;7401963;19;1980;-45
2023/02/02 10:34:19;;;;;;;;;;;;;;;16.52;72.22;100725.84;7399720;19;2079;-45
2023/02/02 10:36:52;;;;;;;;;;;;;;;16.61;72.20;100720.63;7402235;19;1875;-45
2023/02/02 10:39:25;;;;;;;;;;;;;;;16.64;71.95;100708.84;7401241;19;1668;-45
2023/02/02 10:42:00;;;;;;;;;;;;;;;16.66;72.06;100707.75;7400741;19;1931;-45
2023/02/02 10:44:33;;;;;;;;;;;;;;;16.71;72.36;100710.03;7400965;19;1866;-45
2023/02/02 10:47:03;;;;;;;;;;;;;;;16.73;72.79;100701.91;7401366;19;2008;-45
2023/02/02 10:49:35;;;;;;;;;;;;;;;16.70;73.02;100701.19;7400557;19;1862;-45
2023/02/02 10:52:07;;;;;;;;;;;;;;;16.75;72.60;100713.31;7401695;19;1916;-45
2023/02/02 10:54:46;;;;;;;;;;;;;;;16.68;72.92;100710.31;7402043;19;1896;-44
2023/02/02 10:57:18;;;;;;;;;;;;;;;16.69;72.58;100707.53;7400329;19;2240;-44
2023/02/02 10:59:51;;;;;;;;;;;;;;;16.66;72.58;100706.91;7398874;19;2045;-45
2023/02/02 11:02:19;;;;;;;;;;;;;;;16.61;72.38;100706.41;7399703;19;1800;-45
2023/02/02 11:07:31;;;;;;;;;;;;;;;16.50;72.43;100723.28;7400088;19;1733;-44
2023/02/02 11:09:59;;;;;;;;;;;;;;;16.55;72.14;100723.75;7398644;19;1686;-45
2023/02/02 11:12:32;;;;;;;;;;;;;;;16.57;72.72;100703.13;7399566;19;1927;-44
2023/02/02 11:15:04;;;;;;;;;;;;;;;16.52;73.61;100716.00;7398712;19;1851;-45
2023/02/02 11:17:33;;;;;;;;;;;;;;;16.34;75.00;100664.06;7394605;19;1923;-44
2023/02/02 11:20:23;;;;;;;;;;;;;;;16.45;75.15;100685.41;7398955;19;1715;-44
2023/02/02 11:23:00;;;;;;;;;;;;;;;16.32;75.32;100684.69;7397787;19;1568;-44
2023/02/02 11:25:32;;;;;;;;;;;;;;;16.28;75.39;100670.75;7397634;19;1827;-44
2023/02/02 11:28:02;;;;;;;;;;;;;;;16.23;75.25;100668.41;7399592;19;2051;-44
2023/02/02 11:30:34;;;;;;;;;;;;;;;16.21;74.98;100689.03;7399495;19;1705;-44
2023/02/02 11:33:20;;;;;;;;;;;;;;;16.15;75.20;100651.31;7399094;19;1880;-44
2023/02/02 11:35:57;;;;;;;;;;;;;;;16.33;75.13;100655.19;7400162;19;2112;-44
2023/02/02 11:38:26;;;;;;;;;;;;;;;16.35;75.64;100665.75;7398295;19;1861;-44
2023/02/02 11:40:55;;;;;;;;;;;;;;;16.32;74.82;100655.34;7401087;19;1725;-44
2023/02/02 11:43:28;;;;;;;;;;;;;;;16.30;75.14;100656.31;7400594;19;1897;-44
2023/02/02 11:45:57;;;;;;;;;;;;;;;16.27;74.62;100640.56;7399463;19;1871;-44
2023/02/02 11:48:28;;;;;;;;;;;;;;;16.30;74.60;100652.78;7400478;19;2037;-44
2023/02/02 11:51:00;;;;;;;;;;;;;;;16.26;74.57;100643.34;7399226;19;1639;-44
2023/02/02 11:53:30;;;;;;;;;;;;;;;16.26;74.92;100644.16;7400812;19;1744;-44
2023/02/02 11:55:59;;;;;;;;;;;;;;;16.25;74.70;100638.94;7399358;19;1725;-44
2023/02/02 11:58:31;;;;;;;;;;;;;;;16.23;74.79;100643.56;7399305;19;1854;-45
2023/02/02 12:01:01;;;;;;;;;;;;;;;16.36;74.61;100641.63;7400251;19;1692;-44
2023/02/02 12:03:32;;;;;;;;;;;;;;;16.39;74.21;100630.69;7400281;19;3056;-44
2023/02/02 12:06:18;;;;;;;;;;;;;;;16.35;74.33;100639.06;7399653;19;1923;-44
2023/02/02 12:08:47;;;;;;;;;;;;;;;16.24;74.60;100647.94;7398014;19;1885;-44
2023/02/02 12:11:23;;;;;;;;;;;;;;;16.13;75.06;100640.75;7399882;19;1610;-44
2023/02/02 12:13:59;;;;;;;;;;;;;;;16.15;74.49;100656.66;7399256;19;1555;-44
2023/02/02 12:16:38;;;;;;;;;;;;;;;16.09;74.79;100655.31;7399047;19;1640;-44
2023/02/02 12:19:16;;;;;;;;;;;;;;;16.07;74.74;100658.09;7398025;19;1872;-44
2023/02/02 12:21:53;;;;;;;;;;;;;;;16.10;74.42;100657.03;7401121;19;1756;-44
2023/02/02 12:24:30;;;;;;;;;;;;;;;16.17;74.67;100652.88;7397316;19;1790;-44
2023/02/02 12:27:03;;;;;;;;;;;;;;;16.11;74.46;100669.38;7398501;19;1523;-44
2023/02/02 12:29:36;;;;;;;;;;;;;;;16.07;74.70;100665.25;7399125;19;1674;-45
2023/02/02 12:32:20;;;;;;;;;;;;;;;16.02;74.65;100670.09;7407015;19;1572;-45
2023/02/02 12:34:53;;;;;;;;;;;;;;;16.06;74.88;100692.91;7407404;19;1654;-44
2023/02/02 12:37:32;;;;;;;;;;;;;;;16.04;74.56;100686.84;7407816;19;1753;-44
2023/02/02 12:40:05;;;;;;;;;;;;;;;16.13;74.54;100695.94;7404940;19;2080;-45
2023/02/02 12:42:42;;;;;;;;;;;;;;;16.20;74.34;100681.16;7406045;19;1648;-45
2023/02/02 12:45:24;;;;;;;;;;;;;;;16.25;74.29;100682.50;7404538;19;1869;-45
2023/02/02 12:48:00;;;;;;;;;;;;;;;16.26;74.46;100683.34;7406317;19;1737;-44
2023/02/02 12:50:32;;;;;;;;;;;;;;;16.25;74.41;100693.19;7406484;19;1634;-44
2023/02/02 12:53:15;;;;;;;;;;;;;;;16.29;74.50;100694.66;7406646;19;1777;-45
2023/02/02 12:55:46;;;;;;;;;;;;;;;16.34;74.50;100670.25;7405883;19;1723;-44
2023/02/02 12:58:20;;;;;;;;;;;;;;;16.29;75.12;100685.75;7404502;19;2082;-44
2023/02/02 13:01:04;;;;;;;;;;;;;;;16.32;75.04;100668.69;7405772;19;2080;-44
2023/02/02 13:03:37;;;;;;;;;;;;;;;16.37;75.12;100670.00;7404934;19;2023;-45
2023/02/02 13:06:23;;;;;;;;;;;;;;;16.39;74.98;100675.22;7405373;19;2235;-44
2023/02/02 13:08:58;;;;;;;;;;;;;;;16.43;75.26;100682.03;7403451;19;1907;-44
2023/02/02 13:11:34;;;;;;;;;;;;;;;16.44;75.39;100659.72;7405303;19;1745;-44
2023/02/02 13:14:04;;;;;;;;;;;;;;;16.48;75.66;100669.16;7404128;19;1455;-44
2023/02/02 13:16:33;;;;;;;;;;;;;;;16.56;74.92;100665.91;7404201;19;1862;-44
2023/02/02 13:19:03;;;;;;;;;;;;;;;16.60;74.63;100670.03;7403498;19;1842;-44
2023/02/02 13:21:32;;;;;;;;;;;;;;;16.55;74.86;100675.69;7406523;19;1695;-44
2023/02/02 13:24:05;;;;;;;;;;;;;;;16.53;74.73;100680.31;7403382;19;1973;-45